»·PEaware :: N122SQ KCMA-KPSP

N122SQ :: KCMA-KPSP

FLIGHT INFORMATION

Flight Status: Arrived
Operator: Privately registered:
United States
More flights under this callsign
Pilot: Gabor H. (24209)
Aircraft: CIRRUS SR-22 TURBO
(S22T)
More flights by this aircraft type
Origin: KCMA Camarillo
United States
Destination: KPSP Palm Springs Intl
United States
More flights between these airports :: More routes between these airports
Route:
File this flight plan on PilotEdge
Remarks:
Altitude:
(Current/Filed)
9,500ft
Speed:
(Current/Filed)
0kts
Departed: 01-Jan-22 04:19 PM
Arrived: 01-Jan-22 05:06 PM
Distance/Time
Traveled:
131nm/0:47
Distance/Time
To Go:
Arrived

Flight Plot

Page will automatically refresh every two minutes.

Flight plan parsing failed; only flown route is shown


Map Options




Map Legend


Flown Route
Filed Route
Departure Airport
Arrival Airport
Navaid (VOR, NDB)
Fix

Horizontal Profiles

Position Reports

Time Latitude Longitude Heading Altitude Ground
Speed
01-Jan-22 16:10 34.210260 -119.078435 90 80ft 0kts
01-Jan-22 16:11 34.210919 -119.079323 273 80ft 16kts
01-Jan-22 16:13 34.210941 -119.086428 272 80ft 16kts
01-Jan-22 16:13 34.210978 -119.091251 271 80ft 17kts
01-Jan-22 16:14 34.211044 -119.096524 270 80ft 15kts
01-Jan-22 16:15 34.211134 -119.100523 286 80ft 11kts
01-Jan-22 16:16 34.212636 -119.103623 305 80ft 12kts
01-Jan-22 16:17 34.213654 -119.103874 44 80ft 13kts
01-Jan-22 16:18 34.212962 -119.078047 90 669ft 111kts
01-Jan-22 16:19 34.210648 -119.040868 90 2052ft 114kts
01-Jan-22 16:20 34.205937 -119.000193 95 3226ft 130kts
01-Jan-22 16:21 34.200516 -118.956228 94 4389ft 134kts
01-Jan-22 16:22 34.194935 -118.910905 93 5493ft 135kts
01-Jan-22 16:23 34.189212 -118.864098 93 6352ft 143kts
01-Jan-22 16:24 34.183335 -118.816494 92 7445ft 146kts
01-Jan-22 16:25 34.177252 -118.767326 91 8511ft 150kts
01-Jan-22 16:26 34.170965 -118.716614 90 9541ft 156kts
01-Jan-22 16:27 34.164390 -118.663687 90 10553ft 162kts
01-Jan-22 16:28 34.157516 -118.608639 89 11503ft 172kts
01-Jan-22 16:29 34.149540 -118.544840 91 11527ft 202kts
01-Jan-22 16:30 34.140952 -118.477137 91 11519ft 202kts
01-Jan-22 16:31 34.132568 -118.410951 91 11488ft 196kts
01-Jan-22 16:32 34.124289 -118.345778 91 11486ft 196kts
01-Jan-22 16:33 34.115948 -118.280445 94 11537ft 195kts
01-Jan-22 16:34 34.107467 -118.214663 92 11485ft 201kts
01-Jan-22 16:35 34.098980 -118.149132 91 11603ft 193kts
01-Jan-22 16:36 34.090598 -118.083734 91 11522ft 198kts
01-Jan-22 16:37 34.082176 -118.018618 89 11531ft 199kts
01-Jan-22 16:38 34.073592 -117.952980 91 11545ft 196kts
01-Jan-22 16:39 34.065085 -117.887947 91 11562ft 196kts
01-Jan-22 16:40 34.056526 -117.822851 91 11578ft 196kts
01-Jan-22 16:41 34.047893 -117.757514 91 11577ft 197kts
01-Jan-22 16:42 34.039231 -117.692249 91 11576ft 197kts
01-Jan-22 16:43 34.030519 -117.626838 91 11576ft 197kts
01-Jan-22 16:44 34.021812 -117.561719 91 11577ft 197kts
01-Jan-22 16:45 34.013038 -117.496465 91 11578ft 196kts
01-Jan-22 16:46 34.004178 -117.430807 91 11494ft 199kts
01-Jan-22 16:47 33.995296 -117.365239 90 11495ft 197kts
01-Jan-22 16:48 33.986493 -117.300416 91 11575ft 196kts
01-Jan-22 16:49 33.977544 -117.234834 91 11575ft 199kts
01-Jan-22 16:50 33.968496 -117.168966 91 11574ft 199kts
01-Jan-22 16:51 33.958865 -117.098817 93 10596ft 217kts
01-Jan-22 16:52 33.949255 -117.029495 94 9476ft 201kts
01-Jan-22 16:53 33.940214 -116.964414 94 8405ft 192kts
01-Jan-22 16:54 33.931402 -116.901136 95 7384ft 190kts
01-Jan-22 16:55 33.922702 -116.839077 95 6383ft 186kts
01-Jan-22 16:56 33.914116 -116.777954 96 5398ft 184kts
01-Jan-22 16:57 33.909459 -116.717306 90 4433ft 181kts
01-Jan-22 16:58 33.905683 -116.657372 92 3532ft 177kts
01-Jan-22 16:59 33.886749 -116.609046 120 3469ft 160kts
01-Jan-22 17:00 33.873462 -116.559552 101 3232ft 161kts
01-Jan-22 17:01 33.861352 -116.506284 120 2643ft 164kts
01-Jan-22 17:02 33.827240 -116.475561 143 1639ft 147kts
01-Jan-22 17:03 33.806692 -116.477513 283 668ft 84kts
01-Jan-22 17:04 33.822403 -116.498387 324 535ft 83kts
01-Jan-22 17:05 33.831139 -116.506968 226 480ft 0kts
01-Jan-22 17:06 33.830276 -116.507192 179 480ft 21kts
01-Jan-22 17:07 33.827097 -116.508973 179 480ft 13kts
01-Jan-22 17:08 33.826151 -116.510348 89 480ft 0kts
01-Jan-22 17:09 33.826167 -116.510312 38 480ft 0kts
01-Jan-22 17:10 33.826167 -116.510312 38 480ft 0kts
01-Jan-22 17:11 33.826167 -116.510312 38 480ft 0kts
01-Jan-22 17:12 33.826167 -116.510312 38 480ft 0kts
01-Jan-22 17:13 33.826167 -116.510312 38 480ft 0kts

Navigation Log

Ident Type
Flight plan parsing failed, navigation log unavailable